Time;durP1;ratioP1;P1;durP2;ratioP2;P2;SDS_P1;SDS_P2;PMS_P1;PMS_P2;Temp;Humidity;BMP_temperature;BMP_pressure;BME280_temperature;BME280_humidity;BME280_pressure;Samples;Min_cycle;Max_cycle;Signal;HPM_P1;HPM_P2
2023/08/07 00:00:05;;;;;;;;;1.00;1.00;;;;;-143.47;100.00;63865.75;2103872;28;46456;-52
2023/08/07 00:01:06;;;;;;;;;0.75;0.75;;;;;-143.47;100.00;63865.75;2099769;28;46379;-52
2023/08/07 00:02:06;;;;;;;;;1.00;1.00;;;;;-143.47;100.00;63865.75;2105228;27;46654;-50
2023/08/07 00:03:07;;;;;;;;;1.00;1.00;;;;;-143.47;100.00;63865.75;2103497;28;46482;-53
2023/08/07 00:04:07;;;;;;;;;0.00;0.00;;;;;-143.47;100.00;63865.75;2104371;28;46711;-50
2023/08/07 00:05:08;;;;;;;;;1.67;1.00;;;;;-143.47;100.00;63865.75;2099994;27;46283;-52
2023/08/07 00:06:09;;;;;;;;;1.00;1.00;;;;;-143.47;100.00;63865.75;2096077;28;45912;-51
2023/08/07 00:07:09;;;;;;;;;0.33;0.33;;;;;-143.47;100.00;63865.75;2096154;28;46453;-50
2023/08/07 00:08:09;;;;;;;;;0.00;0.00;;;;;-143.47;100.00;63865.75;2096889;28;46108;-52
2023/08/07 00:09:10;;;;;;;;;1.00;1.00;;;;;-143.47;100.00;63865.75;2096279;28;46279;-48
2023/08/07 00:10:11;;;;;;;;;1.33;1.33;;;;;-143.47;100.00;63865.75;2096080;28;46721;-52
2023/08/07 00:11:11;;;;;;;;;2.00;0.75;;;;;-143.47;100.00;63865.75;2097293;28;46782;-53
2023/08/07 00:12:12;;;;;;;;;0.00;0.00;;;;;-143.47;100.00;63865.75;2096934;28;46360;-52
2023/08/07 00:13:12;;;;;;;;;1.00;1.00;;;;;-143.47;100.00;63865.75;2096042;28;46872;-52
2023/08/07 00:14:12;;;;;;;;;1.00;1.00;;;;;-143.47;100.00;63865.75;2096069;28;45547;-53
2023/08/07 00:15:13;;;;;;;;;1.00;1.00;;;;;-143.47;100.00;63865.75;2089886;28;46530;-52
2023/08/07 00:16:13;;;;;;;;;1.33;0.00;;;;;-143.47;100.00;63865.75;2087673;28;46461;-52
2023/08/07 00:17:13;;;;;;;;;0.00;0.00;;;;;-143.47;100.00;63865.75;2088007;28;46272;-51
2023/08/07 00:18:13;;;;;;;;;0.00;0.00;;;;;-143.47;100.00;63865.75;2088604;28;46381;-51
2023/08/07 00:19:14;;;;;;;;;1.33;1.33;;;;;-143.47;100.00;63865.75;2088281;28;47069;-53
2023/08/07 00:20:14;;;;;;;;;1.00;1.00;;;;;-143.47;100.00;63865.75;2089130;28;46679;-51
2023/08/07 00:21:14;;;;;;;;;0.00;0.00;;;;;-143.47;100.00;63865.75;2088445;28;46554;-52
2023/08/07 00:22:15;;;;;;;;;0.00;0.00;;;;;-143.47;100.00;63865.75;2087791;28;46525;-49
2023/08/07 00:23:15;;;;;;;;;1.33;0.00;;;;;-143.47;100.00;63865.75;2079986;28;46411;-53
2023/08/07 00:24:15;;;;;;;;;1.67;1.67;;;;;-143.47;100.00;63865.75;2088342;28;46293;-51
2023/08/07 00:25:16;;;;;;;;;0.00;0.00;;;;;-143.47;100.00;63865.75;2096971;28;45986;-52
2023/08/07 00:26:16;;;;;;;;;0.00;0.00;;;;;-143.47;100.00;63865.75;2096841;28;46511;-51
2023/08/07 00:27:16;;;;;;;;;0.67;0.67;;;;;-143.47;100.00;63865.75;2096255;28;46364;-53
2023/08/07 00:28:17;;;;;;;;;1.00;1.00;;;;;-143.47;100.00;63865.75;2096167;28;46310;-54
2023/08/07 00:29:17;;;;;;;;;1.33;1.00;;;;;-143.47;100.00;63865.75;2094446;28;46602;-53
2023/08/07 00:30:17;;;;;;;;;2.33;0.00;;;;;-143.47;100.00;63865.75;2089240;28;46242;-49
2023/08/07 00:31:18;;;;;;;;;0.33;0.33;;;;;-143.47;100.00;63865.75;2099854;27;46701;-50
2023/08/07 00:32:18;;;;;;;;;0.67;0.33;;;;;-143.47;100.00;63865.75;2096776;28;45976;-52
2023/08/07 00:33:19;;;;;;;;;1.75;1.00;;;;;-143.47;100.00;63865.75;2096384;28;46277;-52
2023/08/07 00:34:19;;;;;;;;;0.00;0.00;;;;;-143.47;100.00;63865.75;2096254;28;46216;-54
2023/08/07 00:35:20;;;;;;;;;0.67;0.67;;;;;-143.47;100.00;63865.75;2096654;28;46107;-52
2023/08/07 00:36:20;;;;;;;;;3.33;2.33;;;;;-143.47;100.00;63865.75;2096017;28;46505;-50
2023/08/07 00:37:20;;;;;;;;;0.00;0.00;;;;;-143.47;100.00;63865.75;2096452;28;46183;-53
2023/08/07 00:38:20;;;;;;;;;0.00;0.00;;;;;-143.47;100.00;63865.75;2096815;28;46456;-53
2023/08/07 00:39:21;;;;;;;;;2.00;1.00;;;;;-143.47;100.00;63865.75;2096352;28;46313;-52
2023/08/07 00:40:21;;;;;;;;;0.00;0.00;;;;;-143.47;100.00;63865.75;2096642;28;46235;-48
2023/08/07 00:41:22;;;;;;;;;1.00;1.00;;;;;-143.47;100.00;63865.75;2096336;28;46439;-50
2023/08/07 00:42:22;;;;;;;;;1.67;0.33;;;;;-143.47;100.00;63865.75;2095477;28;46300;-52
2023/08/07 00:43:22;;;;;;;;;0.00;0.00;;;;;-143.47;100.00;63865.75;2094980;28;46218;-53
2023/08/07 00:44:23;;;;;;;;;0.00;0.00;;;;;-143.47;100.00;63865.75;2096745;28;46343;-50
2023/08/07 00:45:23;;;;;;;;;2.00;0.00;;;;;-143.47;100.00;63865.75;2096396;28;47054;-52
2023/08/07 00:46:24;;;;;;;;;1.00;1.00;;;;;-143.47;100.00;63865.75;2101006;28;46821;-53
2023/08/07 00:47:26;;;;;;;;;1.67;1.00;;;;;-143.47;100.00;63865.75;2097957;28;46255;-52
2023/08/07 00:48:26;;;;;;;;;0.75;0.75;;;;;-143.47;100.00;63865.75;2101149;27;46381;-49
2023/08/07 00:49:27;;;;;;;;;0.00;0.00;;;;;-143.47;100.00;63865.75;2099958;28;46590;-49
2023/08/07 00:50:27;;;;;;;;;1.00;1.00;;;;;-143.47;100.00;63865.75;2096269;28;46404;-50
2023/08/07 00:51:28;;;;;;;;;1.33;0.33;;;;;-143.47;100.00;63865.75;2100001;28;46224;-51
2023/08/07 00:52:29;;;;;;;;;0.50;0.50;;;;;-143.47;100.00;63865.75;2099549;28;46995;-52
2023/08/07 00:53:29;;;;;;;;;1.00;1.00;;;;;-143.47;100.00;63865.75;2096593;28;46282;-53
2023/08/07 00:54:30;;;;;;;;;3.00;3.00;;;;;-143.47;100.00;63865.75;2096270;28;45121;-51
2023/08/07 00:55:31;;;;;;;;;0.00;0.00;;;;;-143.47;100.00;63865.75;2096615;28;46789;-52
2023/08/07 00:56:32;;;;;;;;;0.00;0.00;;;;;-143.47;100.00;63865.75;2096500;28;46658;-48
2023/08/07 00:57:32;;;;;;;;;0.00;0.00;;;;;-143.47;100.00;63865.75;2096874;28;46433;-49
2023/08/07 00:58:33;;;;;;;;;0.00;0.00;;;;;-143.47;100.00;63865.75;2096263;28;46101;-53
2023/08/07 00:59:34;;;;;;;;;0.25;0.25;;;;;-143.47;100.00;63865.75;2098695;28;46787;-53
2023/08/07 01:00:34;;;;;;;;;0.33;0.33;;;;;-143.47;100.00;63865.75;2096189;28;46790;-49
2023/08/07 01:01:36;;;;;;;;;1.67;0.33;;;;;-143.47;100.00;63865.75;2096280;28;45992;-49
2023/08/07 01:02:36;;;;;;;;;0.00;0.00;;;;;-143.47;100.00;63865.75;2101257;27;46440;-49
2023/08/07 01:03:38;;;;;;;;;2.33;0.33;;;;;-143.47;100.00;63865.75;2099970;28;46793;-53
2023/08/07 01:04:38;;;;;;;;;1.25;1.00;;;;;-143.47;100.00;63865.75;2097252;28;46801;-51
2023/08/07 01:05:39;;;;;;;;;2.00;0.67;;;;;-143.47;100.00;63865.75;2100509;28;46463;-51
2023/08/07 01:06:40;;;;;;;;;1.00;1.00;;;;;-143.47;100.00;63865.75;2102108;28;45865;-52
2023/08/07 01:07:41;;;;;;;;;0.00;0.00;;;;;-143.47;100.00;63865.75;2099103;27;46616;-49
2023/08/07 01:08:41;;;;;;;;;0.00;0.00;;;;;-143.47;100.00;63865.75;2097565;28;46532;-49
2023/08/07 01:09:42;;;;;;;;;2.33;1.00;;;;;-143.47;100.00;63865.75;2096135;28;46536;-49
2023/08/07 01:11:12;;;;;;;;;1.00;1.00;;;;;-143.47;100.00;63865.75;2104344;27;46369;-51
2023/08/07 01:12:20;;;;;;;;;0.25;0.25;;;;;-143.47;100.00;63865.75;2101335;27;46554;-48
2023/08/07 01:13:29;;;;;;;;;0.50;0.50;;;;;-143.47;100.00;63865.75;2099779;28;46695;-53
2023/08/07 01:14:40;;;;;;;;;1.00;1.00;;;;;-143.47;100.00;63865.75;2096297;28;46781;-50
2023/08/07 01:15:40;;;;;;;;;1.50;1.00;;;;;-143.47;100.00;63865.75;2099590;27;46960;-52
2023/08/07 01:16:44;;;;;;;;;0.00;0.00;;;;;-143.47;100.00;63865.75;2096030;28;46970;-51
2023/08/07 01:17:46;;;;;;;;;1.00;0.00;;;;;-143.47;100.00;63865.75;2096236;28;46802;-51
2023/08/07 01:18:48;;;;;;;;;0.00;0.00;;;;;-143.47;100.00;63865.75;2099782;28;46548;-50
2023/08/07 01:19:53;;;;;;;;;1.00;1.00;;;;;-143.47;100.00;63865.75;2099392;28;46492;-49
2023/08/07 01:20:53;;;;;;;;;1.75;1.75;;;;;-143.47;100.00;63865.75;2086456;28;46325;-48
2023/08/07 01:22:06;;;;;;;;;1.00;1.00;;;;;-143.47;100.00;63865.75;2090560;28;46105;-49
2023/08/07 01:23:07;;;;;;;;;0.25;0.25;;;;;-143.47;100.00;63865.75;2100500;28;46718;-49
2023/08/07 01:24:09;;;;;;;;;2.00;1.00;;;;;-143.47;100.00;63865.75;2098662;28;46542;-51
2023/08/07 01:25:09;;;;;;;;;2.00;1.00;;;;;-143.47;100.00;63865.75;2100920;27;46923;-51
2023/08/07 01:26:10;;;;;;;;;0.00;0.00;;;;;-143.47;100.00;63865.75;2098428;28;46614;-51
2023/08/07 01:27:19;;;;;;;;;0.00;0.00;;;;;-143.47;100.00;63865.75;2105592;27;46619;-49
2023/08/07 01:28:26;;;;;;;;;0.00;0.00;;;;;-143.47;100.00;63865.75;2106057;27;46802;-53
2023/08/07 01:29:35;;;;;;;;;0.75;0.75;;;;;-143.47;100.00;63865.75;2106089;27;46451;-49
2023/08/07 01:30:42;;;;;;;;;1.25;1.25;;;;;-143.47;100.00;63865.75;2097614;28;46629;-52
2023/08/07 01:31:46;;;;;;;;;4.00;1.50;;;;;-143.47;100.00;63865.75;2091875;28;46800;-54
2023/08/07 01:33:08;;;;;;;;;3.00;0.00;;;;;-143.47;100.00;63865.75;2092509;28;46708;-49
2023/08/07 01:34:13;;;;;;;;;3.50;1.25;;;;;-143.47;100.00;63865.75;2099305;28;46405;-49
2023/08/07 01:35:16;;;;;;;;;2.00;0.75;;;;;-143.47;100.00;63865.75;2098773;27;46614;-51
2023/08/07 01:36:17;;;;;;;;;0.25;0.25;;;;;-143.47;100.00;63865.75;2101336;28;46429;-49
2023/08/07 01:37:18;;;;;;;;;1.50;1.50;;;;;-143.47;100.00;63865.75;2099388;28;46765;-52
2023/08/07 01:38:23;;;;;;;;;0.00;0.00;;;;;-143.47;100.00;63865.75;2099791;28;46705;-54
2023/08/07 01:39:24;;;;;;;;;2.25;2.25;;;;;-143.47;100.00;63865.75;2100475;28;46778;-48
2023/08/07 01:40:26;;;;;;;;;1.00;1.00;;;;;-143.47;100.00;63865.75;2097780;28;47444;-52
2023/08/07 01:41:28;;;;;;;;;0.25;0.00;;;;;-143.47;100.00;63865.75;2100484;27;47082;-51
2023/08/07 01:42:28;;;;;;;;;1.25;1.25;;;;;-143.47;100.00;63865.75;2104015;28;47641;-52
2023/08/07 01:43:30;;;;;;;;;0.00;0.00;;;;;-143.47;100.00;63865.75;2101426;28;46252;-50
2023/08/07 01:44:31;;;;;;;;;1.00;1.00;;;;;-143.47;100.00;63865.75;2102952;28;46973;-50
2023/08/07 01:45:32;;;;;;;;;1.67;1.67;;;;;-143.47;100.00;63865.75;2105179;28;46685;-51
2023/08/07 01:46:32;;;;;;;;;2.33;0.67;;;;;-143.47;100.00;63865.75;2104409;27;46272;-51
2023/08/07 01:47:32;;;;;;;;;0.00;0.00;;;;;-143.47;100.00;63865.75;2106072;27;46084;-51
2023/08/07 01:48:33;;;;;;;;;1.67;1.00;;;;;-143.47;100.00;63865.75;2102530;28;46913;-51
2023/08/07 01:49:33;;;;;;;;;1.00;1.00;;;;;-143.47;100.00;63865.75;2097698;28;46915;-51
2023/08/07 01:50:34;;;;;;;;;1.00;1.00;;;;;-143.47;100.00;63865.75;2102523;27;46402;-53
2023/08/07 01:51:34;;;;;;;;;0.33;0.33;;;;;-143.47;100.00;63865.75;2101917;28;46330;-50
2023/08/07 01:52:34;;;;;;;;;1.00;1.00;;;;;-143.47;100.00;63865.75;2106299;27;46324;-49
2023/08/07 01:53:35;;;;;;;;;1.67;1.00;;;;;-143.47;100.00;63865.75;2097501;27;46362;-49
2023/08/07 01:54:35;;;;;;;;;0.33;0.33;;;;;-143.47;100.00;63865.75;2095877;28;46399;-49
2023/08/07 01:55:35;;;;;;;;;0.00;0.00;;;;;-143.47;100.00;63865.75;2097872;28;46282;-50
2023/08/07 01:56:36;;;;;;;;;1.67;1.00;;;;;-143.47;100.00;63865.75;2100570;27;46409;-50
2023/08/07 01:57:36;;;;;;;;;1.00;1.00;;;;;-143.47;100.00;63865.75;2097980;28;46146;-52
2023/08/07 01:58:36;;;;;;;;;1.67;1.67;;;;;-143.47;100.00;63865.75;2097243;28;46480;-52
2023/08/07 01:59:37;;;;;;;;;1.00;0.00;;;;;-143.47;100.00;63865.75;2097977;28;46293;-53
2023/08/07 02:00:37;;;;;;;;;4.00;1.00;;;;;-143.47;100.00;63865.75;2097558;28;46317;-51
2023/08/07 02:01:37;;;;;;;;;2.00;2.00;;;;;-143.47;100.00;63865.75;2097087;28;47137;-52
2023/08/07 02:02:38;;;;;;;;;0.00;0.00;;;;;-143.47;100.00;63865.75;2098329;28;46392;-51
2023/08/07 02:03:38;;;;;;;;;0.00;0.00;;;;;-143.47;100.00;63865.75;2097653;28;46489;-50
2023/08/07 02:04:39;;;;;;;;;1.00;1.00;;;;;-143.47;100.00;63865.75;2098458;28;46438;-53
2023/08/07 02:05:39;;;;;;;;;1.00;1.00;;;;;-143.47;100.00;63865.75;2097609;28;46686;-52
2023/08/07 02:06:39;;;;;;;;;0.00;0.00;;;;;-143.47;100.00;63865.75;2095032;28;46558;-50
2023/08/07 02:07:40;;;;;;;;;0.00;0.00;;;;;-143.47;100.00;63865.75;2090383;28;46838;-51
2023/08/07 02:08:40;;;;;;;;;0.00;0.00;;;;;-143.47;100.00;63865.75;2097790;28;45928;-52
2023/08/07 02:09:41;;;;;;;;;2.00;0.67;;;;;-143.47;100.00;63865.75;2097242;28;46217;-51
2023/08/07 02:10:41;;;;;;;;;1.00;0.00;;;;;-143.47;100.00;63865.75;2097671;28;46937;-52
2023/08/07 02:11:42;;;;;;;;;1.00;1.00;;;;;-143.47;100.00;63865.75;2089153;28;46526;-53
2023/08/07 02:12:43;;;;;;;;;0.25;0.25;;;;;-143.47;100.00;63865.75;2089117;28;47047;-52
2023/08/07 02:13:43;;;;;;;;;0.00;0.00;;;;;-143.47;100.00;63865.75;2088870;28;46235;-54
2023/08/07 02:14:43;;;;;;;;;0.33;0.33;;;;;-143.47;100.00;63865.75;2095951;28;45010;-51
2023/08/07 02:15:44;;;;;;;;;0.00;0.00;;;;;-143.47;100.00;63865.75;2097416;28;46208;-49
2023/08/07 02:16:44;;;;;;;;;1.00;1.00;;;;;-143.47;100.00;63865.75;2097401;28;46325;-53
2023/08/07 02:17:44;;;;;;;;;2.67;1.00;;;;;-143.47;100.00;63865.75;2097221;28;46872;-52
2023/08/07 02:18:45;;;;;;;;;4.00;1.00;;;;;-143.47;100.00;63865.75;2097971;28;46292;-50
2023/08/07 02:19:45;;;;;;;;;1.67;1.00;;;;;-143.47;100.00;63865.75;2089598;28;46808;-50
2023/08/07 02:20:46;;;;;;;;;0.33;0.33;;;;;-143.47;100.00;63865.75;2091480;28;46556;-51
2023/08/07 02:21:46;;;;;;;;;0.67;0.67;;;;;-143.47;100.00;63865.75;2097486;28;46597;-52
2023/08/07 02:22:46;;;;;;;;;2.00;2.00;;;;;-143.47;100.00;63865.75;2097230;28;46474;-52
2023/08/07 02:23:47;;;;;;;;;1.00;0.00;;;;;-143.47;100.00;63865.75;2098048;28;45547;-51
2023/08/07 02:24:47;;;;;;;;;1.67;0.33;;;;;-143.47;100.00;63865.75;2097309;28;46498;-51
2023/08/07 02:25:48;;;;;;;;;0.67;0.67;;;;;-143.47;100.00;63865.75;2096565;28;46321;-51
2023/08/07 02:26:48;;;;;;;;;2.00;2.00;;;;;-143.47;100.00;63865.75;2105225;28;46570;-52
2023/08/07 02:27:49;;;;;;;;;0.00;0.00;;;;;-143.47;100.00;63865.75;2090660;27;46293;-53
2023/08/07 02:28:49;;;;;;;;;1.00;1.00;;;;;-143.47;100.00;63865.75;2089098;28;46467;-54
2023/08/07 02:29:50;;;;;;;;;0.00;0.00;;;;;-143.47;100.00;63865.75;2089339;28;46339;-54
2023/08/07 02:30:53;;;;;;;;;0.75;0.75;;;;;-143.47;100.00;63865.75;2088925;28;46192;-51
2023/08/07 02:31:54;;;;;;;;;1.25;0.50;;;;;-143.47;100.00;63865.75;2088723;28;46920;-51
2023/08/07 02:32:54;;;;;;;;;1.00;1.00;;;;;-143.47;100.00;63865.75;2088992;28;46630;-53
2023/08/07 02:33:54;;;;;;;;;1.00;1.00;;;;;-143.47;100.00;63865.75;2088879;28;46196;-52
2023/08/07 02:34:55;;;;;;;;;2.00;1.00;;;;;-143.47;100.00;63865.75;2088913;28;46233;-50
2023/08/07 02:35:55;;;;;;;;;2.00;1.00;;;;;-143.47;100.00;63865.75;2089000;28;46642;-50
2023/08/07 02:36:55;;;;;;;;;1.33;0.33;;;;;-143.47;100.00;63865.75;2088937;28;46221;-51
2023/08/07 02:37:56;;;;;;;;;0.00;0.00;;;;;-143.47;100.00;63865.75;2104895;28;46671;-53
2023/08/07 02:38:56;;;;;;;;;1.67;0.67;;;;;-143.47;100.00;63865.75;2104093;28;46671;-50
2023/08/07 02:39:56;;;;;;;;;0.33;0.33;;;;;-143.47;100.00;63865.75;2089221;28;46392;-49
2023/08/07 02:40:57;;;;;;;;;1.00;1.00;;;;;-143.47;100.00;63865.75;2088816;28;46528;-48
2023/08/07 02:41:57;;;;;;;;;0.00;0.00;;;;;-143.47;100.00;63865.75;2092606;28;46518;-52
2023/08/07 02:42:57;;;;;;;;;1.33;0.33;;;;;-143.47;100.00;63865.75;2101564;28;46312;-50
2023/08/07 02:43:58;;;;;;;;;0.67;0.33;;;;;-143.47;100.00;63865.75;2097100;28;46335;-53
2023/08/07 02:44:58;;;;;;;;;1.33;1.33;;;;;-143.47;100.00;63865.75;2099439;28;45628;-50
2023/08/07 02:45:58;;;;;;;;;0.33;0.33;;;;;-143.47;100.00;63865.75;2105752;27;46422;-51
2023/08/07 02:46:59;;;;;;;;;0.33;0.33;;;;;-143.47;100.00;63865.75;2103501;27;46741;-50
2023/08/07 02:47:59;;;;;;;;;2.00;2.00;;;;;-143.47;100.00;63865.75;2103102;27;46207;-50
2023/08/07 02:48:59;;;;;;;;;1.00;1.00;;;;;-143.47;100.00;63865.75;2099812;27;45222;-49
2023/08/07 02:50:00;;;;;;;;;1.00;1.00;;;;;-143.47;100.00;63865.75;2100549;28;46341;-49
2023/08/07 02:51:00;;;;;;;;;2.33;2.33;;;;;-143.47;100.00;63865.75;2098353;27;46934;-51
2023/08/07 02:52:00;;;;;;;;;1.00;1.00;;;;;-143.47;100.00;63865.75;2104405;28;46323;-52
2023/08/07 02:53:02;;;;;;;;;0.00;0.00;;;;;-143.47;100.00;63865.75;2102926;27;46269;-47
2023/08/07 02:54:02;;;;;;;;;2.00;1.00;;;;;-143.47;100.00;63865.75;2105427;27;46849;-50
2023/08/07 02:55:03;;;;;;;;;1.00;1.00;;;;;-143.47;100.00;63865.75;2102084;28;46401;-51
2023/08/07 02:56:03;;;;;;;;;1.33;0.33;;;;;-143.47;100.00;63865.75;2101726;28;46227;-49
2023/08/07 02:57:04;;;;;;;;;1.00;1.00;;;;;-143.47;100.00;63865.75;2096073;28;46692;-51
2023/08/07 02:58:04;;;;;;;;;1.00;1.00;;;;;-143.47;100.00;63865.75;2096391;28;45630;-52
2023/08/07 02:59:05;;;;;;;;;0.00;0.00;;;;;-143.47;100.00;63865.75;2102234;28;45867;-51
2023/08/07 03:00:06;;;;;;;;;1.75;1.75;;;;;-143.47;100.00;63865.75;2102960;28;47385;-51
2023/08/07 03:01:06;;;;;;;;;1.00;1.00;;;;;-143.47;100.00;63865.75;2095527;28;46054;-50
2023/08/07 03:02:07;;;;;;;;;0.67;0.67;;;;;-143.47;100.00;63865.75;2100507;28;46248;-49
2023/08/07 03:03:07;;;;;;;;;0.00;0.00;;;;;-143.47;100.00;63865.75;2097669;28;45456;-48
2023/08/07 03:04:07;;;;;;;;;1.00;1.00;;;;;21.44;100.00;101357.63;2101587;28;46554;-52
2023/08/07 03:05:08;;;;;;;;;1.00;1.00;;;;;21.43;100.00;101350.47;2097224;28;46133;-49
2023/08/07 03:06:08;;;;;;;;;0.00;0.00;;;;;21.42;100.00;101354.13;2104056;28;46029;-49
2023/08/07 03:07:09;;;;;;;;;4.00;3.00;;;;;21.43;100.00;101352.31;2104657;27;46080;-50
2023/08/07 03:08:09;;;;;;;;;2.33;2.00;;;;;21.41;100.00;101349.69;2098093;28;46709;-50
2023/08/07 03:09:10;;;;;;;;;0.67;0.67;;;;;21.40;100.00;101349.78;2097983;27;46218;-53
2023/08/07 03:10:11;;;;;;;;;1.00;1.00;;;;;21.38;100.00;101347.19;2100707;28;46465;-52
2023/08/07 03:11:12;;;;;;;;;1.00;1.00;;;;;21.37;100.00;101348.16;2097880;27;46457;-52
2023/08/07 03:12:12;;;;;;;;;1.00;1.00;;;;;21.36;100.00;101348.25;2101530;28;46443;-51
2023/08/07 03:13:12;;;;;;;;;1.67;1.67;;;;;21.35;100.00;101341.97;2098027;28;46426;-54
2023/08/07 03:14:13;;;;;;;;;1.00;1.00;;;;;21.34;100.00;101353.72;2102717;28;46638;-52
2023/08/07 03:15:13;;;;;;;;;0.00;0.00;;;;;21.34;100.00;101356.44;2101442;28;46654;-50
2023/08/07 03:16:13;;;;;;;;;1.00;1.00;;;;;21.34;100.00;101353.72;2097425;28;46441;-52
2023/08/07 03:17:13;;;;;;;;;3.67;2.00;;;;;21.35;100.00;101352.78;2097526;28;46281;-52
2023/08/07 03:18:14;;;;;;;;;0.00;0.00;;;;;21.34;100.00;101350.13;2101193;28;46708;-51
2023/08/07 03:19:14;;;;;;;;;1.33;0.67;;;;;21.58;100.00;101351.44;2097529;27;46687;-50
2023/08/07 03:20:15;;;;;;;;;1.00;0.00;;;;;21.70;100.00;101357.97;2101052;28;46306;-53
2023/08/07 03:21:15;;;;;;;;;1.67;0.00;;;;;21.73;100.00;101357.81;2098966;28;45428;-51
2023/08/07 03:22:15;;;;;;;;;2.00;0.00;;;;;21.46;100.00;101354.84;2099804;28;46357;-52
2023/08/07 03:23:16;;;;;;;;;3.33;1.00;;;;;21.40;100.00;101356.06;2101633;28;46549;-51
2023/08/07 03:24:16;;;;;;;;;0.33;0.33;;;;;21.58;100.00;101356.84;2097598;28;46321;-49
2023/08/07 03:25:17;;;;;;;;;0.00;0.00;;;;;21.67;100.00;101356.31;2103997;28;46410;-51
2023/08/07 03:26:18;;;;;;;;;1.00;0.00;;;;;21.71;100.00;101354.28;2104749;28;46583;-50
2023/08/07 03:27:18;;;;;;;;;5.33;2.33;;;;;21.72;100.00;101350.63;2099354;27;46227;-48
2023/08/07 03:28:18;;;;;;;;;2.00;1.00;;;;;21.74;100.00;101357.72;2096232;28;46490;-49
2023/08/07 03:29:19;;;;;;;;;0.00;0.00;;;;;21.76;100.00;101362.16;2097882;28;46884;-49
2023/08/07 03:30:19;;;;;;;;;1.00;1.00;;;;;21.75;100.00;101347.78;2101385;27;46470;-50
2023/08/07 03:31:19;;;;;;;;;1.33;1.00;;;;;21.72;100.00;101354.22;2096366;28;45996;-52
2023/08/07 03:32:20;;;;;;;;;2.00;2.00;;;;;21.48;100.00;101358.34;2100897;28;46211;-49
2023/08/07 03:33:20;;;;;;;;;1.67;1.33;;;;;21.41;100.00;101359.63;2088271;28;46451;-53
2023/08/07 03:34:20;;;;;;;;;1.67;1.67;;;;;21.36;100.00;101350.94;2088498;28;46322;-51
2023/08/07 03:35:20;;;;;;;;;1.00;1.00;;;;;21.33;100.00;101360.06;2088609;28;46250;-52
2023/08/07 03:36:22;;;;;;;;;1.00;1.00;;;;;21.33;100.00;101361.88;2105273;27;46976;-53
2023/08/07 03:37:22;;;;;;;;;1.00;1.00;;;;;21.30;100.00;101362.06;2106206;27;46565;-52
2023/08/07 03:38:22;;;;;;;;;0.00;0.00;;;;;21.29;100.00;101363.03;2096597;28;46702;-53
2023/08/07 03:39:23;;;;;;;;;1.00;1.00;;;;;21.47;100.00;101364.69;2097312;28;46137;-50
2023/08/07 03:40:23;;;;;;;;;2.00;1.67;;;;;21.34;100.00;101356.44;2096937;28;46237;-51
2023/08/07 03:41:24;;;;;;;;;1.00;1.00;;;;;21.30;100.00;101362.94;2103474;28;46544;-51
2023/08/07 03:42:24;;;;;;;;;2.67;1.67;;;;;21.29;100.00;101363.91;2098800;28;47340;-49
2023/08/07 03:43:24;;;;;;;;;1.33;1.33;;;;;21.23;100.00;101363.34;2089552;28;46818;-52
2023/08/07 03:44:25;;;;;;;;;2.50;2.50;;;;;21.20;100.00;101363.50;2094391;28;46412;-51
2023/08/07 03:45:25;;;;;;;;;1.67;0.67;;;;;21.18;100.00;101363.59;2096803;28;46382;-49
2023/08/07 03:46:25;;;;;;;;;0.67;0.67;;;;;21.18;100.00;101368.97;2096630;28;46167;-51
2023/08/07 03:47:25;;;;;;;;;1.00;1.00;;;;;21.17;100.00;101367.25;2092306;28;46633;-51
2023/08/07 03:48:26;;;;;;;;;0.67;0.00;;;;;21.17;100.00;101364.53;2090670;28;46810;-50
2023/08/07 03:49:26;;;;;;;;;0.00;0.00;;;;;21.17;100.00;101369.94;2090920;28;46366;-52
2023/08/07 03:50:26;;;;;;;;;1.33;1.00;;;;;21.16;100.00;101360.09;2090434;28;46623;-52
2023/08/07 03:51:27;;;;;;;;;1.00;1.00;;;;;21.16;100.00;101365.50;2097048;28;46854;-50
2023/08/07 03:52:27;;;;;;;;;2.67;1.33;;;;;21.17;100.00;101369.94;2092065;28;46579;-52
2023/08/07 03:53:27;;;;;;;;;2.00;1.00;;;;;21.24;100.00;101371.34;2088464;28;46658;-51
2023/08/07 03:54:28;;;;;;;;;1.00;1.00;;;;;21.24;100.00;101363.25;2088317;28;46345;-52
2023/08/07 03:55:28;;;;;;;;;3.00;1.00;;;;;21.24;100.00;101363.25;2091277;28;46636;-52
2023/08/07 03:56:32;;;;;;;;;2.67;2.67;;;;;21.24;100.00;101370.50;2092804;28;46433;-48
2023/08/07 03:57:32;;;;;;;;;0.25;0.25;;;;;21.25;100.00;101364.13;2095735;28;46428;-49
2023/08/07 03:58:33;;;;;;;;;1.33;1.00;;;;;21.26;100.00;101374.00;2095376;28;46648;-52
2023/08/07 03:59:33;;;;;;;;;1.00;1.00;;;;;21.24;100.00;101359.69;2088317;28;46326;-50
2023/08/07 04:00:33;;;;;;;;;1.33;0.67;;;;;21.24;100.00;101363.25;2092724;28;46764;-51
2023/08/07 04:01:34;;;;;;;;;2.00;2.00;;;;;21.23;100.00;101369.63;2096941;28;46341;-51
2023/08/07 04:02:34;;;;;;;;;1.00;1.00;;;;;21.24;100.00;101367.78;2089228;28;45416;-52
2023/08/07 04:03:35;;;;;;;;;2.00;1.00;;;;;21.23;100.00;101360.66;2091102;28;46639;-49
2023/08/07 04:04:35;;;;;;;;;1.75;1.75;;;;;21.17;100.00;101368.13;2096877;28;46243;-51
2023/08/07 04:05:36;;;;;;;;;2.00;1.33;;;;;21.14;100.00;101365.59;2096738;28;46403;-52
2023/08/07 04:06:36;;;;;;;;;1.00;1.00;;;;;21.14;100.00;101371.00;2097864;28;46440;-53
2023/08/07 04:07:36;;;;;;;;;1.00;0.33;;;;;21.13;100.00;101366.56;2092573;28;46424;-53
2023/08/07 04:08:37;;;;;;;;;1.00;1.00;;;;;21.13;100.00;101363.84;2096694;28;46744;-51
2023/08/07 04:09:37;;;;;;;;;1.00;1.00;;;;;-143.47;100.00;63865.75;2095823;28;46334;-49
2023/08/07 04:10:37;;;;;;;;;2.00;2.00;;;;;-143.47;100.00;63865.75;2096195;28;46394;-51
2023/08/07 04:11:38;;;;;;;;;1.00;1.00;;;;;-143.47;100.00;63865.75;2096130;28;46536;-50
2023/08/07 04:12:38;;;;;;;;;3.33;3.33;;;;;-143.47;100.00;63865.75;2096764;28;46428;-52
2023/08/07 04:13:38;;;;;;;;;4.00;2.00;;;;;-143.47;100.00;63865.75;2095162;28;46812;-49
2023/08/07 04:14:39;;;;;;;;;1.00;1.00;;;;;-143.47;100.00;63865.75;2095256;28;46506;-47
2023/08/07 04:15:39;;;;;;;;;0.00;0.00;;;;;-143.47;100.00;63865.75;2095826;28;46614;-48
2023/08/07 04:16:39;;;;;;;;;1.00;1.00;;;;;-143.47;100.00;63865.75;2086981;28;46277;-51
2023/08/07 04:17:40;;;;;;;;;4.00;1.00;;;;;-143.47;100.00;63865.75;2086872;28;46246;-47
2023/08/07 04:18:40;;;;;;;;;2.33;0.33;;;;;-143.47;100.00;63865.75;2095442;28;46281;-51
2023/08/07 04:19:40;;;;;;;;;0.33;0.33;;;;;-143.47;100.00;63865.75;2095398;28;46961;-50
2023/08/07 04:20:41;;;;;;;;;1.00;1.00;;;;;-143.47;100.00;63865.75;2095503;28;46709;-48
2023/08/07 04:21:41;;;;;;;;;1.00;1.00;;;;;-143.47;100.00;63865.75;2096059;28;45874;-52
2023/08/07 04:22:41;;;;;;;;;2.00;2.00;;;;;-143.47;100.00;63865.75;2096568;28;45681;-48
2023/08/07 04:23:42;;;;;;;;;3.00;1.00;;;;;-143.47;100.00;63865.75;2100542;28;46692;-50
2023/08/07 04:24:42;;;;;;;;;0.00;0.00;;;;;-143.47;100.00;63865.75;2095583;28;46182;-49
2023/08/07 04:25:42;;;;;;;;;1.00;1.00;;;;;-143.47;100.00;63865.75;2095755;28;46289;-50
2023/08/07 04:26:43;;;;;;;;;1.67;1.33;;;;;-143.47;100.00;63865.75;2096358;28;46720;-49
2023/08/07 04:27:43;;;;;;;;;1.33;1.33;;;;;-143.47;100.00;63865.75;2095467;28;46435;-53
2023/08/07 04:28:43;;;;;;;;;2.33;2.00;;;;;-143.47;100.00;63865.75;2095496;28;46714;-48
2023/08/07 04:29:43;;;;;;;;;2.67;2.67;;;;;-143.47;100.00;63865.75;2095516;28;46612;-49
2023/08/07 04:30:45;;;;;;;;;3.00;2.00;;;;;-143.47;100.00;63865.75;2095608;28;46256;-51
2023/08/07 04:31:45;;;;;;;;;1.00;1.00;;;;;-143.47;100.00;63865.75;2095653;28;46373;-49
2023/08/07 04:32:46;;;;;;;;;1.00;1.00;;;;;-143.47;100.00;63865.75;2095746;28;46417;-49
2023/08/07 04:33:46;;;;;;;;;1.00;1.00;;;;;-143.47;100.00;63865.75;2095416;28;45130;-51
2023/08/07 04:34:47;;;;;;;;;1.00;1.00;;;;;-143.47;100.00;63865.75;2095221;28;46401;-49
2023/08/07 04:35:47;;;;;;;;;2.33;2.33;;;;;-143.47;100.00;63865.75;2095806;28;46747;-51
2023/08/07 04:36:50;;;;;;;;;1.33;1.33;;;;;-143.47;100.00;63865.75;2095459;28;46592;-49
2023/08/07 04:37:50;;;;;;;;;1.00;1.00;;;;;-143.47;100.00;63865.75;2094976;28;46765;-50